sensor_id;sensor_type;location;lat;lon;timestamp;P1;durP1;ratioP1;P2;durP2;ratioP2
54460;SDS011;69977;49.414;11.010;2023-12-14T00:01:57;5.77;;;5.27;;
54460;SDS011;69977;49.414;11.010;2023-12-14T00:04:23;5.63;;;5.10;;
54460;SDS011;69977;49.414;11.010;2023-12-14T00:06:49;6.00;;;5.50;;
54460;SDS011;69977;49.414;11.010;2023-12-14T00:09:14;5.00;;;4.60;;
54460;SDS011;69977;49.414;11.010;2023-12-14T00:11:40;5.83;;;5.27;;
54460;SDS011;69977;49.414;11.010;2023-12-14T00:14:06;5.83;;;5.23;;
54460;SDS011;69977;49.414;11.010;2023-12-14T00:16:32;5.17;;;4.33;;
54460;SDS011;69977;49.414;11.010;2023-12-14T00:18:58;4.37;;;4.07;;
54460;SDS011;69977;49.414;11.010;2023-12-14T00:21:24;4.70;;;4.20;;
54460;SDS011;69977;49.414;11.010;2023-12-14T00:23:50;6.67;;;4.83;;
54460;SDS011;69977;49.414;11.010;2023-12-14T00:26:15;4.90;;;4.50;;
54460;SDS011;69977;49.414;11.010;2023-12-14T00:28:42;4.87;;;4.47;;
54460;SDS011;69977;49.414;11.010;2023-12-14T00:31:08;5.17;;;4.67;;
54460;SDS011;69977;49.414;11.010;2023-12-14T00:33:34;5.30;;;4.60;;
54460;SDS011;69977;49.414;11.010;2023-12-14T00:36:00;5.13;;;4.63;;
54460;SDS011;69977;49.414;11.010;2023-12-14T00:38:26;5.33;;;4.33;;
54460;SDS011;69977;49.414;11.010;2023-12-14T00:40:52;5.03;;;4.63;;
54460;SDS011;69977;49.414;11.010;2023-12-14T00:43:18;5.17;;;4.50;;
54460;SDS011;69977;49.414;11.010;2023-12-14T00:45:44;5.50;;;4.23;;
54460;SDS011;69977;49.414;11.010;2023-12-14T00:48:10;5.40;;;4.57;;
54460;SDS011;69977;49.414;11.010;2023-12-14T00:50:36;7.20;;;4.50;;
54460;SDS011;69977;49.414;11.010;2023-12-14T00:53:02;5.77;;;4.60;;
54460;SDS011;69977;49.414;11.010;2023-12-14T00:55:28;5.63;;;4.40;;
54460;SDS011;69977;49.414;11.010;2023-12-14T00:57:54;4.77;;;4.37;;
54460;SDS011;69977;49.414;11.010;2023-12-14T01:00:20;5.43;;;4.27;;
54460;SDS011;69977;49.414;11.010;2023-12-14T01:02:46;4.87;;;4.37;;
54460;SDS011;69977;49.414;11.010;2023-12-14T01:05:11;5.57;;;5.07;;
54460;SDS011;69977;49.414;11.010;2023-12-14T01:07:37;6.13;;;4.67;;
54460;SDS011;69977;49.414;11.010;2023-12-14T01:10:03;5.13;;;4.63;;
54460;SDS011;69977;49.414;11.010;2023-12-14T01:12:29;6.03;;;4.70;;
54460;SDS011;69977;49.414;11.010;2023-12-14T01:14:55;5.27;;;4.77;;
54460;SDS011;69977;49.414;11.010;2023-12-14T01:17:21;5.00;;;4.47;;
54460;SDS011;69977;49.414;11.010;2023-12-14T01:19:47;5.83;;;5.30;;
54460;SDS011;69977;49.414;11.010;2023-12-14T01:22:13;4.97;;;4.47;;
54460;SDS011;69977;49.414;11.010;2023-12-14T01:24:39;4.40;;;4.00;;
54460;SDS011;69977;49.414;11.010;2023-12-14T01:27:05;4.93;;;4.43;;
54460;SDS011;69977;49.414;11.010;2023-12-14T01:29:31;4.97;;;4.57;;
54460;SDS011;69977;49.414;11.010;2023-12-14T01:31:57;5.93;;;5.27;;
54460;SDS011;69977;49.414;11.010;2023-12-14T01:34:22;6.33;;;5.40;;
54460;SDS011;69977;49.414;11.010;2023-12-14T01:36:48;6.33;;;5.57;;
54460;SDS011;69977;49.414;11.010;2023-12-14T01:39:14;7.40;;;5.53;;
54460;SDS011;69977;49.414;11.010;2023-12-14T01:41:40;7.40;;;5.70;;
54460;SDS011;69977;49.414;11.010;2023-12-14T01:44:06;5.93;;;5.20;;
54460;SDS011;69977;49.414;11.010;2023-12-14T01:46:32;9.13;;;6.73;;
54460;SDS011;69977;49.414;11.010;2023-12-14T01:48:58;9.13;;;6.73;;
54460;SDS011;69977;49.414;11.010;2023-12-14T01:51:24;8.80;;;6.50;;
54460;SDS011;69977;49.414;11.010;2023-12-14T01:53:50;8.20;;;7.40;;
54460;SDS011;69977;49.414;11.010;2023-12-14T01:56:15;7.03;;;6.23;;
54460;SDS011;69977;49.414;11.010;2023-12-14T01:58:41;7.70;;;6.50;;
54460;SDS011;69977;49.414;11.010;2023-12-14T02:03:57;7.87;;;6.80;;
54460;SDS011;69977;49.414;11.010;2023-12-14T02:06:23;8.37;;;7.20;;
54460;SDS011;69977;49.414;11.010;2023-12-14T02:08:49;8.40;;;7.00;;
54460;SDS011;69977;49.414;11.010;2023-12-14T02:11:15;10.03;;;7.90;;
54460;SDS011;69977;49.414;11.010;2023-12-14T02:13:41;9.73;;;7.83;;
54460;SDS011;69977;49.414;11.010;2023-12-14T02:16:07;9.43;;;7.40;;
54460;SDS011;69977;49.414;11.010;2023-12-14T02:18:34;9.90;;;8.03;;
54460;SDS011;69977;49.414;11.010;2023-12-14T02:21:00;11.50;;;8.30;;
54460;SDS011;69977;49.414;11.010;2023-12-14T02:23:26;9.10;;;7.97;;
54460;SDS011;69977;49.414;11.010;2023-12-14T02:25:52;11.90;;;8.23;;
54460;SDS011;69977;49.414;11.010;2023-12-14T02:28:18;9.27;;;7.97;;
54460;SDS011;69977;49.414;11.010;2023-12-14T02:30:43;12.17;;;8.43;;
54460;SDS011;69977;49.414;11.010;2023-12-14T02:33:09;12.40;;;7.73;;
54460;SDS011;69977;49.414;11.010;2023-12-14T02:35:35;9.27;;;7.03;;
54460;SDS011;69977;49.414;11.010;2023-12-14T02:38:01;10.60;;;7.67;;
54460;SDS011;69977;49.414;11.010;2023-12-14T02:40:30;8.70;;;7.27;;
54460;SDS011;69977;49.414;11.010;2023-12-14T02:42:56;8.77;;;7.47;;
54460;SDS011;69977;49.414;11.010;2023-12-14T02:45:22;8.03;;;6.63;;
54460;SDS011;69977;49.414;11.010;2023-12-14T02:47:48;8.27;;;6.83;;
54460;SDS011;69977;49.414;11.010;2023-12-14T02:50:15;8.70;;;7.70;;
54460;SDS011;69977;49.414;11.010;2023-12-14T02:52:41;9.87;;;7.37;;
54460;SDS011;69977;49.414;11.010;2023-12-14T02:55:07;8.53;;;7.10;;
54460;SDS011;69977;49.414;11.010;2023-12-14T02:57:33;9.53;;;7.97;;
54460;SDS011;69977;49.414;11.010;2023-12-14T02:59:59;8.37;;;7.50;;
54460;SDS011;69977;49.414;11.010;2023-12-14T03:02:24;9.07;;;7.37;;
54460;SDS011;69977;49.414;11.010;2023-12-14T03:04:50;9.27;;;6.63;;
54460;SDS011;69977;49.414;11.010;2023-12-14T03:07:16;12.67;;;9.00;;
54460;SDS011;69977;49.414;11.010;2023-12-14T03:09:42;8.80;;;7.73;;
54460;SDS011;69977;49.414;11.010;2023-12-14T03:12:10;8.83;;;7.67;;
54460;SDS011;69977;49.414;11.010;2023-12-14T03:14:36;10.60;;;8.50;;
54460;SDS011;69977;49.414;11.010;2023-12-14T03:17:02;9.73;;;8.50;;
54460;SDS011;69977;49.414;11.010;2023-12-14T03:19:28;10.70;;;8.83;;
54460;SDS011;69977;49.414;11.010;2023-12-14T03:21:54;8.67;;;7.87;;
54460;SDS011;69977;49.414;11.010;2023-12-14T03:24:20;8.80;;;7.90;;
54460;SDS011;69977;49.414;11.010;2023-12-14T03:26:46;8.93;;;7.93;;
54460;SDS011;69977;49.414;11.010;2023-12-14T03:29:12;10.27;;;8.53;;
54460;SDS011;69977;49.414;11.010;2023-12-14T03:31:38;15.17;;;9.03;;
54460;SDS011;69977;49.414;11.010;2023-12-14T03:34:05;12.20;;;8.80;;
54460;SDS011;69977;49.414;11.010;2023-12-14T03:36:31;8.83;;;7.80;;
54460;SDS011;69977;49.414;11.010;2023-12-14T03:38:57;13.17;;;8.83;;
54460;SDS011;69977;49.414;11.010;2023-12-14T03:41:22;10.33;;;8.70;;
54460;SDS011;69977;49.414;11.010;2023-12-14T03:43:48;11.43;;;8.03;;
54460;SDS011;69977;49.414;11.010;2023-12-14T03:46:14;10.37;;;8.87;;
54460;SDS011;69977;49.414;11.010;2023-12-14T03:48:40;12.40;;;8.47;;
54460;SDS011;69977;49.414;11.010;2023-12-14T03:51:06;9.40;;;8.10;;
54460;SDS011;69977;49.414;11.010;2023-12-14T03:53:32;8.60;;;7.70;;
54460;SDS011;69977;49.414;11.010;2023-12-14T03:55:58;8.60;;;7.70;;
54460;SDS011;69977;49.414;11.010;2023-12-14T03:58:24;8.77;;;7.53;;
54460;SDS011;69977;49.414;11.010;2023-12-14T04:00:50;8.30;;;6.87;;
54460;SDS011;69977;49.414;11.010;2023-12-14T04:03:16;7.93;;;7.13;;
54460;SDS011;69977;49.414;11.010;2023-12-14T04:05:42;7.97;;;7.13;;
54460;SDS011;69977;49.414;11.010;2023-12-14T04:08:09;7.57;;;6.87;;
54460;SDS011;69977;49.414;11.010;2023-12-14T04:10:35;10.83;;;7.93;;
54460;SDS011;69977;49.414;11.010;2023-12-14T04:13:01;9.97;;;7.37;;
54460;SDS011;69977;49.414;11.010;2023-12-14T04:15:27;10.60;;;7.57;;
54460;SDS011;69977;49.414;11.010;2023-12-14T04:17:53;8.93;;;7.03;;
54460;SDS011;69977;49.414;11.010;2023-12-14T04:20:19;10.47;;;7.93;;
54460;SDS011;69977;49.414;11.010;2023-12-14T04:22:45;11.40;;;7.40;;
54460;SDS011;69977;49.414;11.010;2023-12-14T04:25:11;9.63;;;7.90;;
54460;SDS011;69977;49.414;11.010;2023-12-14T04:27:37;9.43;;;7.50;;
54460;SDS011;69977;49.414;11.010;2023-12-14T04:30:03;11.37;;;8.57;;
54460;SDS011;69977;49.414;11.010;2023-12-14T04:32:29;10.10;;;8.90;;
54460;SDS011;69977;49.414;11.010;2023-12-14T04:34:55;14.03;;;9.40;;
54460;SDS011;69977;49.414;11.010;2023-12-14T04:37:21;13.63;;;9.27;;
54460;SDS011;69977;49.414;11.010;2023-12-14T04:39:47;12.37;;;9.37;;
54460;SDS011;69977;49.414;11.010;2023-12-14T04:42:13;11.10;;;9.27;;
54460;SDS011;69977;49.414;11.010;2023-12-14T04:44:39;13.60;;;9.53;;
54460;SDS011;69977;49.414;11.010;2023-12-14T04:47:05;11.17;;;8.53;;
54460;SDS011;69977;49.414;11.010;2023-12-14T04:49:31;12.27;;;9.67;;
54460;SDS011;69977;49.414;11.010;2023-12-14T04:51:57;10.87;;;8.97;;
54460;SDS011;69977;49.414;11.010;2023-12-14T04:54:22;12.30;;;9.33;;
54460;SDS011;69977;49.414;11.010;2023-12-14T04:56:48;9.23;;;8.23;;
54460;SDS011;69977;49.414;11.010;2023-12-14T04:59:14;12.33;;;8.93;;
54460;SDS011;69977;49.414;11.010;2023-12-14T05:01:40;10.17;;;8.13;;
54460;SDS011;69977;49.414;11.010;2023-12-14T05:04:06;12.00;;;8.77;;
54460;SDS011;69977;49.414;11.010;2023-12-14T05:06:32;8.53;;;7.73;;
54460;SDS011;69977;49.414;11.010;2023-12-14T05:08:59;9.30;;;8.20;;
54460;SDS011;69977;49.414;11.010;2023-12-14T05:11:28;9.40;;;8.17;;
54460;SDS011;69977;49.414;11.010;2023-12-14T05:13:53;8.80;;;7.80;;
54460;SDS011;69977;49.414;11.010;2023-12-14T05:16:19;9.67;;;8.10;;
54460;SDS011;69977;49.414;11.010;2023-12-14T05:18:45;12.40;;;8.43;;
54460;SDS011;69977;49.414;11.010;2023-12-14T05:21:16;10.47;;;8.80;;
54460;SDS011;69977;49.414;11.010;2023-12-14T05:23:42;9.83;;;8.27;;
54460;SDS011;69977;49.414;11.010;2023-12-14T05:26:08;10.47;;;7.87;;
54460;SDS011;69977;49.414;11.010;2023-12-14T05:28:34;9.73;;;7.77;;
54460;SDS011;69977;49.414;11.010;2023-12-14T05:31:00;8.27;;;7.47;;
54460;SDS011;69977;49.414;11.010;2023-12-14T05:33:26;9.63;;;8.10;;
54460;SDS011;69977;49.414;11.010;2023-12-14T05:35:52;8.83;;;7.70;;
54460;SDS011;69977;49.414;11.010;2023-12-14T05:38:19;8.47;;;7.63;;
54460;SDS011;69977;49.414;11.010;2023-12-14T05:40:45;10.33;;;7.07;;
54460;SDS011;69977;49.414;11.010;2023-12-14T05:43:10;7.43;;;6.73;;
54460;SDS011;69977;49.414;11.010;2023-12-14T05:45:36;9.00;;;7.87;;
54460;SDS011;69977;49.414;11.010;2023-12-14T05:48:02;8.83;;;7.83;;
54460;SDS011;69977;49.414;11.010;2023-12-14T05:50:30;8.40;;;6.73;;
54460;SDS011;69977;49.414;11.010;2023-12-14T05:52:56;8.00;;;7.20;;
54460;SDS011;69977;49.414;11.010;2023-12-14T05:55:22;12.13;;;7.80;;
54460;SDS011;69977;49.414;11.010;2023-12-14T05:57:48;11.37;;;8.33;;
54460;SDS011;69977;49.414;11.010;2023-12-14T06:00:14;8.77;;;7.33;;
54460;SDS011;69977;49.414;11.010;2023-12-14T06:02:41;9.03;;;6.80;;
54460;SDS011;69977;49.414;11.010;2023-12-14T06:05:07;9.27;;;7.13;;
54460;SDS011;69977;49.414;11.010;2023-12-14T06:07:33;9.13;;;6.90;;
54460;SDS011;69977;49.414;11.010;2023-12-14T06:09:59;7.83;;;7.03;;
54460;SDS011;69977;49.414;11.010;2023-12-14T06:12:26;8.63;;;7.30;;
54460;SDS011;69977;49.414;11.010;2023-12-14T06:14:52;7.63;;;6.87;;
54460;SDS011;69977;49.414;11.010;2023-12-14T06:17:18;7.60;;;6.90;;
54460;SDS011;69977;49.414;11.010;2023-12-14T06:19:44;8.83;;;7.70;;
54460;SDS011;69977;49.414;11.010;2023-12-14T06:22:10;9.03;;;7.00;;
54460;SDS011;69977;49.414;11.010;2023-12-14T06:24:36;8.90;;;7.37;;
54460;SDS011;69977;49.414;11.010;2023-12-14T06:27:02;9.63;;;6.93;;
54460;SDS011;69977;49.414;11.010;2023-12-14T06:29:28;8.37;;;7.10;;
54460;SDS011;69977;49.414;11.010;2023-12-14T06:31:54;9.80;;;6.97;;
54460;SDS011;69977;49.414;11.010;2023-12-14T06:34:20;13.63;;;8.40;;
54460;SDS011;69977;49.414;11.010;2023-12-14T06:36:46;10.67;;;8.03;;
54460;SDS011;69977;49.414;11.010;2023-12-14T06:39:12;13.40;;;7.43;;
54460;SDS011;69977;49.414;11.010;2023-12-14T06:41:38;8.40;;;7.47;;
54460;SDS011;69977;49.414;11.010;2023-12-14T06:44:04;9.77;;;7.60;;
54460;SDS011;69977;49.414;11.010;2023-12-14T06:46:30;12.63;;;8.40;;
54460;SDS011;69977;49.414;11.010;2023-12-14T06:48:56;12.90;;;8.83;;
54460;SDS011;69977;49.414;11.010;2023-12-14T06:51:22;9.67;;;8.30;;
54460;SDS011;69977;49.414;11.010;2023-12-14T06:53:48;8.57;;;7.73;;
54460;SDS011;69977;49.414;11.010;2023-12-14T06:56:14;9.67;;;7.33;;
54460;SDS011;69977;49.414;11.010;2023-12-14T06:58:40;10.93;;;8.17;;
54460;SDS011;69977;49.414;11.010;2023-12-14T07:01:07;12.17;;;8.30;;
54460;SDS011;69977;49.414;11.010;2023-12-14T07:03:45;9.90;;;8.03;;
54460;SDS011;69977;49.414;11.010;2023-12-14T07:06:14;8.83;;;7.93;;
54460;SDS011;69977;49.414;11.010;2023-12-14T07:08:41;12.93;;;8.37;;
54460;SDS011;69977;49.414;11.010;2023-12-14T07:11:07;10.00;;;8.20;;
54460;SDS011;69977;49.414;11.010;2023-12-14T07:13:34;10.93;;;9.13;;
54460;SDS011;69977;49.414;11.010;2023-12-14T07:16:06;12.70;;;8.70;;
54460;SDS011;69977;49.414;11.010;2023-12-14T07:18:34;11.83;;;8.43;;
54460;SDS011;69977;49.414;11.010;2023-12-14T07:21:01;13.23;;;8.97;;
54460;SDS011;69977;49.414;11.010;2023-12-14T07:23:30;10.23;;;8.90;;
54460;SDS011;69977;49.414;11.010;2023-12-14T07:25:56;12.63;;;8.53;;
54460;SDS011;69977;49.414;11.010;2023-12-14T07:28:22;11.37;;;8.77;;
54460;SDS011;69977;49.414;11.010;2023-12-14T07:30:48;14.90;;;9.33;;
54460;SDS011;69977;49.414;11.010;2023-12-14T07:33:14;10.03;;;8.53;;
54460;SDS011;69977;49.414;11.010;2023-12-14T07:35:41;11.90;;;9.13;;
54460;SDS011;69977;49.414;11.010;2023-12-14T07:38:06;11.37;;;9.13;;
54460;SDS011;69977;49.414;11.010;2023-12-14T07:40:33;11.50;;;8.80;;
54460;SDS011;69977;49.414;11.010;2023-12-14T07:42:59;11.23;;;9.00;;
54460;SDS011;69977;49.414;11.010;2023-12-14T07:45:24;11.47;;;8.53;;
54460;SDS011;69977;49.414;11.010;2023-12-14T07:47:50;13.07;;;9.17;;
54460;SDS011;69977;49.414;11.010;2023-12-14T07:50:17;11.13;;;9.23;;
54460;SDS011;69977;49.414;11.010;2023-12-14T07:52:44;11.33;;;8.83;;
54460;SDS011;69977;49.414;11.010;2023-12-14T07:55:10;13.03;;;10.17;;
54460;SDS011;69977;49.414;11.010;2023-12-14T07:57:36;12.00;;;9.80;;
54460;SDS011;69977;49.414;11.010;2023-12-14T08:00:02;12.40;;;9.03;;
54460;SDS011;69977;49.414;11.010;2023-12-14T08:02:31;13.27;;;9.63;;
54460;SDS011;69977;49.414;11.010;2023-12-14T08:04:56;12.23;;;9.80;;
54460;SDS011;69977;49.414;11.010;2023-12-14T08:07:22;12.13;;;10.00;;
54460;SDS011;69977;49.414;11.010;2023-12-14T08:09:48;12.87;;;10.73;;
54460;SDS011;69977;49.414;11.010;2023-12-14T08:12:14;14.33;;;10.20;;
54460;SDS011;69977;49.414;11.010;2023-12-14T08:14:40;15.17;;;9.73;;
54460;SDS011;69977;49.414;11.010;2023-12-14T08:17:08;15.67;;;10.83;;
54460;SDS011;69977;49.414;11.010;2023-12-14T08:19:35;16.90;;;11.13;;
54460;SDS011;69977;49.414;11.010;2023-12-14T08:22:01;17.73;;;10.93;;
54460;SDS011;69977;49.414;11.010;2023-12-14T08:24:27;13.10;;;10.60;;
54460;SDS011;69977;49.414;11.010;2023-12-14T08:26:53;13.83;;;10.90;;
54460;SDS011;69977;49.414;11.010;2023-12-14T08:29:19;12.87;;;9.10;;
54460;SDS011;69977;49.414;11.010;2023-12-14T08:31:45;18.53;;;11.20;;
54460;SDS011;69977;49.414;11.010;2023-12-14T08:34:11;14.40;;;11.20;;
54460;SDS011;69977;49.414;11.010;2023-12-14T08:36:36;16.53;;;10.70;;
54460;SDS011;69977;49.414;11.010;2023-12-14T08:39:02;11.67;;;9.73;;
54460;SDS011;69977;49.414;11.010;2023-12-14T08:41:28;14.43;;;11.10;;
54460;SDS011;69977;49.414;11.010;2023-12-14T08:43:54;12.30;;;10.63;;
54460;SDS011;69977;49.414;11.010;2023-12-14T08:46:20;13.93;;;10.60;;
54460;SDS011;69977;49.414;11.010;2023-12-14T08:48:48;14.40;;;10.80;;
54460;SDS011;69977;49.414;11.010;2023-12-14T08:51:14;15.60;;;11.13;;
54460;SDS011;69977;49.414;11.010;2023-12-14T08:53:40;14.67;;;10.03;;
54460;SDS011;69977;49.414;11.010;2023-12-14T08:56:06;14.80;;;10.30;;
54460;SDS011;69977;49.414;11.010;2023-12-14T08:58:33;13.43;;;11.07;;
54460;SDS011;69977;49.414;11.010;2023-12-14T09:00:59;16.43;;;10.77;;
54460;SDS011;69977;49.414;11.010;2023-12-14T09:03:25;13.27;;;11.30;;
54460;SDS011;69977;49.414;11.010;2023-12-14T09:05:51;12.77;;;9.47;;
54460;SDS011;69977;49.414;11.010;2023-12-14T09:08:17;14.90;;;10.10;;
54460;SDS011;69977;49.414;11.010;2023-12-14T09:10:43;13.43;;;10.20;;
54460;SDS011;69977;49.414;11.010;2023-12-14T09:13:09;13.50;;;9.87;;
54460;SDS011;69977;49.414;11.010;2023-12-14T09:15:35;11.70;;;10.40;;
54460;SDS011;69977;49.414;11.010;2023-12-14T09:18:01;12.23;;;10.53;;
54460;SDS011;69977;49.414;11.010;2023-12-14T09:20:28;12.33;;;10.33;;
54460;SDS011;69977;49.414;11.010;2023-12-14T09:22:53;15.73;;;10.90;;
54460;SDS011;69977;49.414;11.010;2023-12-14T09:25:19;12.23;;;10.30;;
54460;SDS011;69977;49.414;11.010;2023-12-14T09:27:45;12.57;;;9.57;;
54460;SDS011;69977;49.414;11.010;2023-12-14T09:30:12;11.37;;;9.23;;
54460;SDS011;69977;49.414;11.010;2023-12-14T09:32:38;13.13;;;10.77;;
54460;SDS011;69977;49.414;11.010;2023-12-14T09:35:05;11.43;;;10.23;;
54460;SDS011;69977;49.414;11.010;2023-12-14T09:37:31;14.93;;;10.07;;
54460;SDS011;69977;49.414;11.010;2023-12-14T09:39:57;12.03;;;9.67;;
54460;SDS011;69977;49.414;11.010;2023-12-14T09:42:23;12.30;;;9.43;;
54460;SDS011;69977;49.414;11.010;2023-12-14T09:44:50;9.80;;;8.73;;
54460;SDS011;69977;49.414;11.010;2023-12-14T09:47:17;13.17;;;9.00;;
54460;SDS011;69977;49.414;11.010;2023-12-14T09:49:43;10.20;;;8.20;;
54460;SDS011;69977;49.414;11.010;2023-12-14T09:52:11;11.43;;;8.77;;
54460;SDS011;69977;49.414;11.010;2023-12-14T09:54:37;10.33;;;7.67;;
54460;SDS011;69977;49.414;11.010;2023-12-14T09:57:03;11.03;;;8.03;;
54460;SDS011;69977;49.414;11.010;2023-12-14T09:59:30;10.20;;;7.63;;
54460;SDS011;69977;49.414;11.010;2023-12-14T10:02:08;9.10;;;8.20;;
54460;SDS011;69977;49.414;11.010;2023-12-14T10:04:36;11.60;;;9.00;;
54460;SDS011;69977;49.414;11.010;2023-12-14T10:07:02;10.57;;;8.77;;
54460;SDS011;69977;49.414;11.010;2023-12-14T10:09:32;11.43;;;8.10;;
54460;SDS011;69977;49.414;11.010;2023-12-14T10:12:05;10.20;;;7.57;;
54460;SDS011;69977;49.414;11.010;2023-12-14T10:14:33;9.50;;;8.37;;
54460;SDS011;69977;49.414;11.010;2023-12-14T10:17:13;12.57;;;9.30;;
54460;SDS011;69977;49.414;11.010;2023-12-14T10:19:43;12.03;;;8.00;;
54460;SDS011;69977;49.414;11.010;2023-12-14T10:22:10;10.97;;;8.83;;
54460;SDS011;69977;49.414;11.010;2023-12-14T10:24:38;14.67;;;8.90;;
54460;SDS011;69977;49.414;11.010;2023-12-14T10:27:06;11.83;;;9.00;;
54460;SDS011;69977;49.414;11.010;2023-12-14T10:29:39;13.73;;;8.93;;
54460;SDS011;69977;49.414;11.010;2023-12-14T10:32:06;13.87;;;9.40;;
54460;SDS011;69977;49.414;11.010;2023-12-14T10:34:34;10.50;;;8.57;;
54460;SDS011;69977;49.414;11.010;2023-12-14T10:37:05;13.97;;;8.67;;
54460;SDS011;69977;49.414;11.010;2023-12-14T10:39:34;10.47;;;8.90;;
54460;SDS011;69977;49.414;11.010;2023-12-14T10:42:03;10.93;;;8.60;;
54460;SDS011;69977;49.414;11.010;2023-12-14T10:44:30;12.70;;;9.10;;
54460;SDS011;69977;49.414;11.010;2023-12-14T10:47:00;11.63;;;8.87;;
54460;SDS011;69977;49.414;11.010;2023-12-14T10:49:29;13.97;;;8.33;;
54460;SDS011;69977;49.414;11.010;2023-12-14T10:51:56;15.13;;;8.87;;
54460;SDS011;69977;49.414;11.010;2023-12-14T10:54:24;10.20;;;8.53;;
54460;SDS011;69977;49.414;11.010;2023-12-14T10:56:54;9.43;;;8.43;;
54460;SDS011;69977;49.414;11.010;2023-12-14T10:59:21;12.03;;;8.77;;
54460;SDS011;69977;49.414;11.010;2023-12-14T11:01:54;14.80;;;8.73;;
54460;SDS011;69977;49.414;11.010;2023-12-14T11:04:22;9.37;;;8.20;;
54460;SDS011;69977;49.414;11.010;2023-12-14T11:06:48;10.17;;;7.83;;
54460;SDS011;69977;49.414;11.010;2023-12-14T11:09:16;9.67;;;8.73;;
54460;SDS011;69977;49.414;11.010;2023-12-14T11:14:18;10.77;;;8.10;;
54460;SDS011;69977;49.414;11.010;2023-12-14T11:16:47;10.17;;;8.70;;
54460;SDS011;69977;49.414;11.010;2023-12-14T11:21:48;15.23;;;8.50;;
54460;SDS011;69977;49.414;11.010;2023-12-14T11:24:34;11.83;;;9.07;;
54460;SDS011;69977;49.414;11.010;2023-12-14T11:27:04;10.93;;;7.77;;
54460;SDS011;69977;49.414;11.010;2023-12-14T11:29:31;9.80;;;7.40;;
54460;SDS011;69977;49.414;11.010;2023-12-14T11:31:57;13.40;;;8.70;;
54460;SDS011;69977;49.414;11.010;2023-12-14T11:34:24;10.77;;;8.57;;
54460;SDS011;69977;49.414;11.010;2023-12-14T11:36:50;10.67;;;8.27;;
54460;SDS011;69977;49.414;11.010;2023-12-14T11:39:16;15.33;;;8.17;;
54460;SDS011;69977;49.414;11.010;2023-12-14T11:41:42;11.40;;;8.03;;
54460;SDS011;69977;49.414;11.010;2023-12-14T11:44:07;9.47;;;7.07;;
54460;SDS011;69977;49.414;11.010;2023-12-14T11:46:33;11.67;;;7.50;;
54460;SDS011;69977;49.414;11.010;2023-12-14T11:48:59;10.33;;;6.80;;
54460;SDS011;69977;49.414;11.010;2023-12-14T11:51:28;7.83;;;6.33;;
54460;SDS011;69977;49.414;11.010;2023-12-14T11:53:56;9.57;;;6.70;;
54460;SDS011;69977;49.414;11.010;2023-12-14T11:56:26;8.47;;;6.27;;
54460;SDS011;69977;49.414;11.010;2023-12-14T11:58:52;6.70;;;5.60;;
54460;SDS011;69977;49.414;11.010;2023-12-14T12:01:20;8.43;;;6.20;;
54460;SDS011;69977;49.414;11.010;2023-12-14T12:03:46;6.23;;;5.30;;
54460;SDS011;69977;49.414;11.010;2023-12-14T12:06:25;7.43;;;5.17;;
54460;SDS011;69977;49.414;11.010;2023-12-14T12:08:56;9.43;;;5.60;;
54460;SDS011;69977;49.414;11.010;2023-12-14T12:11:22;5.63;;;5.03;;
54460;SDS011;69977;49.414;11.010;2023-12-14T12:13:56;7.87;;;5.60;;
54460;SDS011;69977;49.414;11.010;2023-12-14T12:16:23;5.70;;;5.10;;
54460;SDS011;69977;49.414;11.010;2023-12-14T12:18:49;7.37;;;5.23;;
54460;SDS011;69977;49.414;11.010;2023-12-14T12:21:16;6.67;;;5.13;;
54460;SDS011;69977;49.414;11.010;2023-12-14T12:23:42;7.37;;;5.27;;
54460;SDS011;69977;49.414;11.010;2023-12-14T12:26:08;6.63;;;5.53;;
54460;SDS011;69977;49.414;11.010;2023-12-14T12:28:34;6.40;;;5.23;;
54460;SDS011;69977;49.414;11.010;2023-12-14T12:31:00;7.70;;;5.33;;
54460;SDS011;69977;49.414;11.010;2023-12-14T12:33:26;5.33;;;4.70;;
54460;SDS011;69977;49.414;11.010;2023-12-14T12:35:52;9.17;;;5.63;;
54460;SDS011;69977;49.414;11.010;2023-12-14T12:38:19;7.13;;;5.50;;
54460;SDS011;69977;49.414;11.010;2023-12-14T12:40:45;8.97;;;5.73;;
54460;SDS011;69977;49.414;11.010;2023-12-14T12:43:11;6.87;;;5.73;;
54460;SDS011;69977;49.414;11.010;2023-12-14T12:45:39;9.10;;;5.73;;
54460;SDS011;69977;49.414;11.010;2023-12-14T12:48:05;10.83;;;6.63;;
54460;SDS011;69977;49.414;11.010;2023-12-14T12:50:32;12.83;;;7.17;;
54460;SDS011;69977;49.414;11.010;2023-12-14T12:52:58;13.67;;;7.03;;
54460;SDS011;69977;49.414;11.010;2023-12-14T12:55:24;12.73;;;6.97;;
54460;SDS011;69977;49.414;11.010;2023-12-14T12:57:50;8.27;;;6.10;;
54460;SDS011;69977;49.414;11.010;2023-12-14T13:00:16;7.87;;;5.73;;
54460;SDS011;69977;49.414;11.010;2023-12-14T13:02:42;8.37;;;6.13;;
54460;SDS011;69977;49.414;11.010;2023-12-14T13:05:12;7.53;;;5.30;;
54460;SDS011;69977;49.414;11.010;2023-12-14T13:07:39;6.63;;;5.80;;
54460;SDS011;69977;49.414;11.010;2023-12-14T13:10:07;8.70;;;6.40;;
54460;SDS011;69977;49.414;11.010;2023-12-14T13:12:34;7.30;;;5.67;;
54460;SDS011;69977;49.414;11.010;2023-12-14T13:15:00;7.37;;;6.00;;
54460;SDS011;69977;49.414;11.010;2023-12-14T13:17:26;7.83;;;5.93;;
54460;SDS011;69977;49.414;11.010;2023-12-14T13:19:52;8.07;;;6.47;;
54460;SDS011;69977;49.414;11.010;2023-12-14T13:22:18;8.53;;;6.50;;
54460;SDS011;69977;49.414;11.010;2023-12-14T13:24:45;12.57;;;6.40;;
54460;SDS011;69977;49.414;11.010;2023-12-14T13:27:11;8.87;;;6.17;;
54460;SDS011;69977;49.414;11.010;2023-12-14T13:29:37;8.63;;;6.80;;
54460;SDS011;69977;49.414;11.010;2023-12-14T13:32:03;7.10;;;5.53;;
54460;SDS011;69977;49.414;11.010;2023-12-14T13:34:29;11.07;;;6.30;;
54460;SDS011;69977;49.414;11.010;2023-12-14T13:36:55;10.27;;;6.27;;
54460;SDS011;69977;49.414;11.010;2023-12-14T13:39:22;9.50;;;6.20;;
54460;SDS011;69977;49.414;11.010;2023-12-14T13:41:48;10.63;;;7.63;;
54460;SDS011;69977;49.414;11.010;2023-12-14T13:44:14;7.37;;;6.43;;
54460;SDS011;69977;49.414;11.010;2023-12-14T13:46:40;11.17;;;6.53;;
54460;SDS011;69977;49.414;11.010;2023-12-14T13:49:06;11.13;;;7.10;;
54460;SDS011;69977;49.414;11.010;2023-12-14T13:51:32;9.63;;;7.33;;
54460;SDS011;69977;49.414;11.010;2023-12-14T13:53:57;10.27;;;7.27;;
54460;SDS011;69977;49.414;11.010;2023-12-14T13:56:23;13.33;;;8.10;;
54460;SDS011;69977;49.414;11.010;2023-12-14T13:58:49;10.03;;;6.60;;
54460;SDS011;69977;49.414;11.010;2023-12-14T14:01:15;10.47;;;7.40;;
54460;SDS011;69977;49.414;11.010;2023-12-14T14:03:41;11.80;;;6.77;;
54460;SDS011;69977;49.414;11.010;2023-12-14T14:06:08;7.70;;;5.50;;
54460;SDS011;69977;49.414;11.010;2023-12-14T14:08:34;5.97;;;5.07;;
54460;SDS011;69977;49.414;11.010;2023-12-14T14:11:00;5.40;;;4.90;;
54460;SDS011;69977;49.414;11.010;2023-12-14T14:13:27;4.90;;;4.40;;
54460;SDS011;69977;49.414;11.010;2023-12-14T14:15:53;4.23;;;3.90;;
54460;SDS011;69977;49.414;11.010;2023-12-14T14:18:19;5.57;;;4.27;;
54460;SDS011;69977;49.414;11.010;2023-12-14T14:20:45;6.60;;;4.37;;
54460;SDS011;69977;49.414;11.010;2023-12-14T14:23:11;4.80;;;4.30;;
54460;SDS011;69977;49.414;11.010;2023-12-14T14:25:37;5.63;;;4.57;;
54460;SDS011;69977;49.414;11.010;2023-12-14T14:28:03;5.93;;;5.00;;
54460;SDS011;69977;49.414;11.010;2023-12-14T14:30:29;6.57;;;5.17;;